sensor_id;sensor_type;location;lat;lon;timestamp;P1;durP1;ratioP1;P2;durP2;ratioP2
33074;SDS011;19433;51.292;6.868;2023-03-01T00:01:03;11.67;;;9.10;;
33074;SDS011;19433;51.292;6.868;2023-03-01T00:03:29;9.57;;;8.57;;
33074;SDS011;19433;51.292;6.868;2023-03-01T00:05:54;9.77;;;8.63;;
33074;SDS011;19433;51.292;6.868;2023-03-01T00:08:20;10.57;;;8.03;;
33074;SDS011;19433;51.292;6.868;2023-03-01T00:10:45;10.23;;;8.37;;
33074;SDS011;19433;51.292;6.868;2023-03-01T00:13:10;10.30;;;9.30;;
33074;SDS011;19433;51.292;6.868;2023-03-01T00:15:39;10.00;;;7.90;;
33074;SDS011;19433;51.292;6.868;2023-03-01T00:18:06;9.23;;;8.03;;
33074;SDS011;19433;51.292;6.868;2023-03-01T00:20:32;9.40;;;8.40;;
33074;SDS011;19433;51.292;6.868;2023-03-01T00:22:57;12.37;;;9.03;;
33074;SDS011;19433;51.292;6.868;2023-03-01T00:25:22;11.13;;;9.83;;
33074;SDS011;19433;51.292;6.868;2023-03-01T00:27:48;9.80;;;8.10;;
33074;SDS011;19433;51.292;6.868;2023-03-01T00:30:14;10.07;;;8.60;;
33074;SDS011;19433;51.292;6.868;2023-03-01T00:32:39;13.97;;;8.83;;
33074;SDS011;19433;51.292;6.868;2023-03-01T00:35:05;9.83;;;8.30;;
33074;SDS011;19433;51.292;6.868;2023-03-01T00:37:30;10.43;;;8.70;;
33074;SDS011;19433;51.292;6.868;2023-03-01T00:39:56;10.70;;;9.03;;
33074;SDS011;19433;51.292;6.868;2023-03-01T00:42:21;12.60;;;10.00;;
33074;SDS011;19433;51.292;6.868;2023-03-01T00:44:47;9.60;;;8.70;;
33074;SDS011;19433;51.292;6.868;2023-03-01T00:47:12;10.17;;;8.87;;
33074;SDS011;19433;51.292;6.868;2023-03-01T00:49:38;12.23;;;9.17;;
33074;SDS011;19433;51.292;6.868;2023-03-01T00:52:04;10.93;;;9.83;;
33074;SDS011;19433;51.292;6.868;2023-03-01T00:54:29;10.30;;;9.30;;
33074;SDS011;19433;51.292;6.868;2023-03-01T00:56:54;10.67;;;9.67;;
33074;SDS011;19433;51.292;6.868;2023-03-01T00:59:20;14.60;;;9.93;;
33074;SDS011;19433;51.292;6.868;2023-03-01T01:01:45;12.97;;;9.63;;
33074;SDS011;19433;51.292;6.868;2023-03-01T01:04:11;10.87;;;8.70;;
33074;SDS011;19433;51.292;6.868;2023-03-01T01:06:44;10.10;;;9.20;;
33074;SDS011;19433;51.292;6.868;2023-03-01T01:09:13;12.30;;;10.03;;
33074;SDS011;19433;51.292;6.868;2023-03-01T01:11:42;10.00;;;8.90;;
33074;SDS011;19433;51.292;6.868;2023-03-01T01:14:12;10.17;;;9.27;;
33074;SDS011;19433;51.292;6.868;2023-03-01T01:16:37;9.83;;;8.90;;
33074;SDS011;19433;51.292;6.868;2023-03-01T01:19:03;12.33;;;9.77;;
33074;SDS011;19433;51.292;6.868;2023-03-01T01:21:29;11.27;;;9.23;;
33074;SDS011;19433;51.292;6.868;2023-03-01T01:23:54;11.50;;;9.50;;
33074;SDS011;19433;51.292;6.868;2023-03-01T01:26:25;11.53;;;9.73;;
33074;SDS011;19433;51.292;6.868;2023-03-01T01:28:52;11.10;;;10.10;;
33074;SDS011;19433;51.292;6.868;2023-03-01T01:31:18;11.87;;;10.03;;
33074;SDS011;19433;51.292;6.868;2023-03-01T01:33:44;13.40;;;8.80;;
33074;SDS011;19433;51.292;6.868;2023-03-01T01:36:10;12.90;;;9.83;;
33074;SDS011;19433;51.292;6.868;2023-03-01T01:38:36;9.90;;;8.83;;
33074;SDS011;19433;51.292;6.868;2023-03-01T01:41:03;10.53;;;9.03;;
33074;SDS011;19433;51.292;6.868;2023-03-01T01:43:39;10.20;;;9.17;;
33074;SDS011;19433;51.292;6.868;2023-03-01T01:46:26;11.73;;;9.40;;
33074;SDS011;19433;51.292;6.868;2023-03-01T01:49:11;11.07;;;9.97;;
33074;SDS011;19433;51.292;6.868;2023-03-01T01:51:43;12.87;;;10.20;;
33074;SDS011;19433;51.292;6.868;2023-03-01T01:54:59;11.43;;;10.43;;
33074;SDS011;19433;51.292;6.868;2023-03-01T01:57:02;11.43;;;10.03;;
33074;SDS011;19433;51.292;6.868;2023-03-01T01:59:31;11.50;;;9.40;;
33074;SDS011;19433;51.292;6.868;2023-03-01T02:01:59;11.10;;;10.00;;
33074;SDS011;19433;51.292;6.868;2023-03-01T02:04:27;13.63;;;10.73;;
33074;SDS011;19433;51.292;6.868;2023-03-01T02:06:55;11.50;;;10.17;;
33074;SDS011;19433;51.292;6.868;2023-03-01T02:09:25;11.20;;;9.47;;
33074;SDS011;19433;51.292;6.868;2023-03-01T02:11:51;11.00;;;9.90;;
33074;SDS011;19433;51.292;6.868;2023-03-01T02:14:18;11.40;;;10.20;;
33074;SDS011;19433;51.292;6.868;2023-03-01T02:16:43;11.30;;;10.30;;
33074;SDS011;19433;51.292;6.868;2023-03-01T02:19:09;12.37;;;11.00;;
33074;SDS011;19433;51.292;6.868;2023-03-01T02:21:54;12.43;;;10.00;;
33074;SDS011;19433;51.292;6.868;2023-03-01T02:26:55;11.30;;;9.73;;
33074;SDS011;19433;51.292;6.868;2023-03-01T02:29:24;12.57;;;10.37;;
33074;SDS011;19433;51.292;6.868;2023-03-01T02:31:52;11.93;;;10.73;;
33074;SDS011;19433;51.292;6.868;2023-03-01T02:34:22;11.30;;;10.20;;
33074;SDS011;19433;51.292;6.868;2023-03-01T02:36:57;13.70;;;10.87;;
33074;SDS011;19433;51.292;6.868;2023-03-01T02:39:27;11.67;;;10.40;;
33074;SDS011;19433;51.292;6.868;2023-03-01T02:41:56;14.10;;;10.73;;
33074;SDS011;19433;51.292;6.868;2023-03-01T02:44:23;11.57;;;10.10;;
33074;SDS011;19433;51.292;6.868;2023-03-01T02:46:53;12.20;;;11.00;;
33074;SDS011;19433;51.292;6.868;2023-03-01T02:49:28;12.40;;;10.73;;
33074;SDS011;19433;51.292;6.868;2023-03-01T02:52:07;10.53;;;9.63;;
33074;SDS011;19433;51.292;6.868;2023-03-01T02:57:33;12.03;;;10.70;;
33074;SDS011;19433;51.292;6.868;2023-03-01T03:00:02;12.10;;;10.90;;
33074;SDS011;19433;51.292;6.868;2023-03-01T03:02:32;11.43;;;10.33;;
33074;SDS011;19433;51.292;6.868;2023-03-01T03:05:11;12.37;;;11.17;;
33074;SDS011;19433;51.292;6.868;2023-03-01T03:07:39;14.57;;;12.93;;
33074;SDS011;19433;51.292;6.868;2023-03-01T03:10:06;12.37;;;10.87;;
33074;SDS011;19433;51.292;6.868;2023-03-01T03:12:36;12.30;;;11.10;;
33074;SDS011;19433;51.292;6.868;2023-03-01T03:15:02;13.97;;;12.37;;
33074;SDS011;19433;51.292;6.868;2023-03-01T03:17:33;12.63;;;11.10;;
33074;SDS011;19433;51.292;6.868;2023-03-01T03:20:00;11.27;;;10.00;;
33074;SDS011;19433;51.292;6.868;2023-03-01T03:22:26;13.13;;;10.80;;
33074;SDS011;19433;51.292;6.868;2023-03-01T03:24:53;10.17;;;9.03;;
33074;SDS011;19433;51.292;6.868;2023-03-01T03:27:18;11.10;;;10.00;;
33074;SDS011;19433;51.292;6.868;2023-03-01T03:29:44;11.87;;;10.67;;
33074;SDS011;19433;51.292;6.868;2023-03-01T03:32:09;12.97;;;10.30;;
33074;SDS011;19433;51.292;6.868;2023-03-01T03:34:34;11.20;;;10.00;;
33074;SDS011;19433;51.292;6.868;2023-03-01T03:36:59;11.80;;;10.63;;
33074;SDS011;19433;51.292;6.868;2023-03-01T03:39:25;11.90;;;10.80;;
33074;SDS011;19433;51.292;6.868;2023-03-01T03:41:52;12.60;;;11.30;;
33074;SDS011;19433;51.292;6.868;2023-03-01T03:44:17;12.00;;;10.50;;
33074;SDS011;19433;51.292;6.868;2023-03-01T03:46:43;12.47;;;11.20;;
33074;SDS011;19433;51.292;6.868;2023-03-01T03:49:08;11.77;;;10.60;;
33074;SDS011;19433;51.292;6.868;2023-03-01T03:51:33;11.00;;;9.80;;
33074;SDS011;19433;51.292;6.868;2023-03-01T03:53:59;11.47;;;10.27;;
33074;SDS011;19433;51.292;6.868;2023-03-01T03:56:24;12.07;;;9.73;;
33074;SDS011;19433;51.292;6.868;2023-03-01T03:58:50;11.40;;;9.10;;
33074;SDS011;19433;51.292;6.868;2023-03-01T04:01:16;11.30;;;10.20;;
33074;SDS011;19433;51.292;6.868;2023-03-01T04:03:41;12.87;;;10.97;;
33074;SDS011;19433;51.292;6.868;2023-03-01T04:06:11;12.43;;;10.37;;
33074;SDS011;19433;51.292;6.868;2023-03-01T04:08:36;12.50;;;10.27;;
33074;SDS011;19433;51.292;6.868;2023-03-01T04:11:03;11.77;;;10.53;;
33074;SDS011;19433;51.292;6.868;2023-03-01T04:13:49;12.30;;;10.70;;
33074;SDS011;19433;51.292;6.868;2023-03-01T04:16:16;11.67;;;10.03;;
33074;SDS011;19433;51.292;6.868;2023-03-01T04:18:41;11.43;;;10.23;;
33074;SDS011;19433;51.292;6.868;2023-03-01T04:21:07;13.90;;;12.03;;
33074;SDS011;19433;51.292;6.868;2023-03-01T04:23:32;12.13;;;10.67;;
33074;SDS011;19433;51.292;6.868;2023-03-01T04:25:58;11.40;;;10.20;;
33074;SDS011;19433;51.292;6.868;2023-03-01T04:28:25;17.30;;;10.63;;
33074;SDS011;19433;51.292;6.868;2023-03-01T04:30:56;14.87;;;11.83;;
33074;SDS011;19433;51.292;6.868;2023-03-01T04:33:23;12.63;;;11.30;;
33074;SDS011;19433;51.292;6.868;2023-03-01T04:35:50;12.60;;;11.30;;
33074;SDS011;19433;51.292;6.868;2023-03-01T04:38:16;14.27;;;11.90;;
33074;SDS011;19433;51.292;6.868;2023-03-01T04:40:42;14.80;;;13.20;;
33074;SDS011;19433;51.292;6.868;2023-03-01T04:43:08;11.23;;;10.23;;
33074;SDS011;19433;51.292;6.868;2023-03-01T04:45:35;14.27;;;11.13;;
33074;SDS011;19433;51.292;6.868;2023-03-01T04:48:01;15.93;;;12.20;;
33074;SDS011;19433;51.292;6.868;2023-03-01T04:50:27;13.33;;;11.60;;
33074;SDS011;19433;51.292;6.868;2023-03-01T04:52:53;11.70;;;10.57;;
33074;SDS011;19433;51.292;6.868;2023-03-01T04:55:18;12.33;;;10.80;;
33074;SDS011;19433;51.292;6.868;2023-03-01T04:57:43;13.40;;;11.23;;
33074;SDS011;19433;51.292;6.868;2023-03-01T05:00:11;11.50;;;10.40;;
33074;SDS011;19433;51.292;6.868;2023-03-01T05:02:54;12.53;;;11.20;;
33074;SDS011;19433;51.292;6.868;2023-03-01T05:05:21;15.73;;;12.00;;
33074;SDS011;19433;51.292;6.868;2023-03-01T05:07:52;15.23;;;12.03;;
33074;SDS011;19433;51.292;6.868;2023-03-01T05:10:19;11.80;;;10.60;;
33074;SDS011;19433;51.292;6.868;2023-03-01T05:12:44;13.17;;;11.77;;
33074;SDS011;19433;51.292;6.868;2023-03-01T05:15:10;13.60;;;11.23;;
33074;SDS011;19433;51.292;6.868;2023-03-01T05:17:35;14.03;;;11.47;;
33074;SDS011;19433;51.292;6.868;2023-03-01T05:20:00;15.77;;;13.50;;
33074;SDS011;19433;51.292;6.868;2023-03-01T05:22:28;12.30;;;10.93;;
33074;SDS011;19433;51.292;6.868;2023-03-01T05:24:54;12.73;;;11.37;;
33074;SDS011;19433;51.292;6.868;2023-03-01T05:27:19;18.73;;;12.00;;
33074;SDS011;19433;51.292;6.868;2023-03-01T05:29:47;13.77;;;12.33;;
33074;SDS011;19433;51.292;6.868;2023-03-01T05:32:14;17.13;;;14.37;;
33074;SDS011;19433;51.292;6.868;2023-03-01T05:34:40;13.33;;;11.93;;
33074;SDS011;19433;51.292;6.868;2023-03-01T05:37:06;14.10;;;11.60;;
33074;SDS011;19433;51.292;6.868;2023-03-01T05:39:33;14.53;;;13.10;;
33074;SDS011;19433;51.292;6.868;2023-03-01T05:41:59;16.13;;;12.93;;
33074;SDS011;19433;51.292;6.868;2023-03-01T05:44:26;14.00;;;12.33;;
33074;SDS011;19433;51.292;6.868;2023-03-01T05:46:53;13.50;;;12.10;;
33074;SDS011;19433;51.292;6.868;2023-03-01T05:49:18;12.87;;;11.13;;
33074;SDS011;19433;51.292;6.868;2023-03-01T05:51:47;13.23;;;11.17;;
33074;SDS011;19433;51.292;6.868;2023-03-01T05:54:14;16.10;;;12.13;;
33074;SDS011;19433;51.292;6.868;2023-03-01T05:56:39;12.30;;;11.10;;
33074;SDS011;19433;51.292;6.868;2023-03-01T05:59:05;13.63;;;11.97;;
33074;SDS011;19433;51.292;6.868;2023-03-01T06:01:31;13.40;;;12.03;;
33074;SDS011;19433;51.292;6.868;2023-03-01T06:03:57;15.43;;;12.27;;
33074;SDS011;19433;51.292;6.868;2023-03-01T06:06:22;13.30;;;11.90;;
33074;SDS011;19433;51.292;6.868;2023-03-01T06:08:48;16.67;;;13.03;;
33074;SDS011;19433;51.292;6.868;2023-03-01T06:11:14;14.10;;;11.23;;
33074;SDS011;19433;51.292;6.868;2023-03-01T06:13:41;14.47;;;11.37;;
33074;SDS011;19433;51.292;6.868;2023-03-01T06:16:09;12.30;;;11.00;;
33074;SDS011;19433;51.292;6.868;2023-03-01T06:18:35;14.10;;;11.37;;
33074;SDS011;19433;51.292;6.868;2023-03-01T06:21:01;13.27;;;11.50;;
33074;SDS011;19433;51.292;6.868;2023-03-01T06:23:26;16.40;;;11.63;;
33074;SDS011;19433;51.292;6.868;2023-03-01T06:25:52;12.00;;;10.77;;
33074;SDS011;19433;51.292;6.868;2023-03-01T06:28:17;12.27;;;10.97;;
33074;SDS011;19433;51.292;6.868;2023-03-01T06:30:42;13.37;;;11.13;;
33074;SDS011;19433;51.292;6.868;2023-03-01T06:33:08;12.57;;;11.27;;
33074;SDS011;19433;51.292;6.868;2023-03-01T06:35:33;13.63;;;11.30;;
33074;SDS011;19433;51.292;6.868;2023-03-01T06:38:02;13.57;;;12.30;;
33074;SDS011;19433;51.292;6.868;2023-03-01T06:40:29;10.77;;;9.77;;
33074;SDS011;19433;51.292;6.868;2023-03-01T06:43:00;13.33;;;11.70;;
33074;SDS011;19433;51.292;6.868;2023-03-01T06:45:25;13.93;;;11.37;;
33074;SDS011;19433;51.292;6.868;2023-03-01T06:47:51;13.03;;;11.03;;
33074;SDS011;19433;51.292;6.868;2023-03-01T06:50:16;13.73;;;11.27;;
33074;SDS011;19433;51.292;6.868;2023-03-01T06:52:43;12.80;;;10.60;;
33074;SDS011;19433;51.292;6.868;2023-03-01T06:55:12;14.47;;;12.23;;
33074;SDS011;19433;51.292;6.868;2023-03-01T06:57:38;15.13;;;11.30;;
33074;SDS011;19433;51.292;6.868;2023-03-01T07:00:03;13.47;;;10.97;;
33074;SDS011;19433;51.292;6.868;2023-03-01T07:02:29;14.63;;;10.83;;
33074;SDS011;19433;51.292;6.868;2023-03-01T07:04:55;13.17;;;11.57;;
33074;SDS011;19433;51.292;6.868;2023-03-01T07:07:20;13.50;;;10.97;;
33074;SDS011;19433;51.292;6.868;2023-03-01T07:09:45;13.40;;;11.23;;
33074;SDS011;19433;51.292;6.868;2023-03-01T07:12:13;11.90;;;10.60;;
33074;SDS011;19433;51.292;6.868;2023-03-01T07:14:38;13.50;;;10.30;;
33074;SDS011;19433;51.292;6.868;2023-03-01T07:17:03;12.50;;;11.20;;
33074;SDS011;19433;51.292;6.868;2023-03-01T07:19:28;12.87;;;11.27;;
33074;SDS011;19433;51.292;6.868;2023-03-01T07:21:54;12.93;;;11.63;;
33074;SDS011;19433;51.292;6.868;2023-03-01T07:24:20;11.47;;;10.27;;
33074;SDS011;19433;51.292;6.868;2023-03-01T07:26:49;11.90;;;10.77;;
33074;SDS011;19433;51.292;6.868;2023-03-01T07:29:16;17.97;;;10.93;;
33074;SDS011;19433;51.292;6.868;2023-03-01T07:31:42;12.93;;;10.57;;
33074;SDS011;19433;51.292;6.868;2023-03-01T07:34:07;12.87;;;11.67;;
33074;SDS011;19433;51.292;6.868;2023-03-01T07:36:32;12.50;;;11.20;;
33074;SDS011;19433;51.292;6.868;2023-03-01T07:38:57;11.40;;;10.23;;
33074;SDS011;19433;51.292;6.868;2023-03-01T07:41:23;14.40;;;11.07;;
33074;SDS011;19433;51.292;6.868;2023-03-01T07:43:48;11.50;;;10.23;;
33074;SDS011;19433;51.292;6.868;2023-03-01T07:46:13;11.73;;;10.63;;
33074;SDS011;19433;51.292;6.868;2023-03-01T07:48:39;14.33;;;10.30;;
33074;SDS011;19433;51.292;6.868;2023-03-01T07:51:05;12.70;;;11.40;;
33074;SDS011;19433;51.292;6.868;2023-03-01T07:53:31;12.10;;;10.77;;
33074;SDS011;19433;51.292;6.868;2023-03-01T07:58:35;12.60;;;11.00;;
33074;SDS011;19433;51.292;6.868;2023-03-01T08:01:02;11.67;;;10.57;;
33074;SDS011;19433;51.292;6.868;2023-03-01T08:03:29;11.13;;;10.23;;
33074;SDS011;19433;51.292;6.868;2023-03-01T08:05:54;10.90;;;9.90;;
33074;SDS011;19433;51.292;6.868;2023-03-01T08:08:20;10.53;;;9.63;;
33074;SDS011;19433;51.292;6.868;2023-03-01T08:10:45;11.23;;;9.80;;
33074;SDS011;19433;51.292;6.868;2023-03-01T08:13:10;11.40;;;10.27;;
33074;SDS011;19433;51.292;6.868;2023-03-01T08:15:35;11.93;;;10.77;;
33074;SDS011;19433;51.292;6.868;2023-03-01T08:18:01;10.53;;;9.60;;
33074;SDS011;19433;51.292;6.868;2023-03-01T08:20:26;11.13;;;9.93;;
33074;SDS011;19433;51.292;6.868;2023-03-01T08:22:51;9.83;;;9.03;;
33074;SDS011;19433;51.292;6.868;2023-03-01T08:25:17;10.50;;;9.67;;
33074;SDS011;19433;51.292;6.868;2023-03-01T08:27:42;10.60;;;9.70;;
33074;SDS011;19433;51.292;6.868;2023-03-01T08:30:07;9.30;;;8.50;;
33074;SDS011;19433;51.292;6.868;2023-03-01T08:32:37;10.73;;;9.63;;
33074;SDS011;19433;51.292;6.868;2023-03-01T08:35:04;10.33;;;9.40;;
33074;SDS011;19433;51.292;6.868;2023-03-01T08:37:29;9.53;;;8.63;;
33074;SDS011;19433;51.292;6.868;2023-03-01T08:39:57;12.03;;;10.20;;
33074;SDS011;19433;51.292;6.868;2023-03-01T08:42:23;10.30;;;9.30;;
33074;SDS011;19433;51.292;6.868;2023-03-01T08:44:48;11.30;;;9.63;;
33074;SDS011;19433;51.292;6.868;2023-03-01T08:47:13;9.87;;;9.03;;
33074;SDS011;19433;51.292;6.868;2023-03-01T08:49:39;10.00;;;9.17;;
33074;SDS011;19433;51.292;6.868;2023-03-01T08:52:04;10.60;;;9.53;;
33074;SDS011;19433;51.292;6.868;2023-03-01T08:54:29;10.20;;;9.23;;
33074;SDS011;19433;51.292;6.868;2023-03-01T08:56:55;10.77;;;9.77;;
33074;SDS011;19433;51.292;6.868;2023-03-01T08:59:20;10.40;;;9.50;;
33074;SDS011;19433;51.292;6.868;2023-03-01T09:01:46;10.60;;;9.60;;
33074;SDS011;19433;51.292;6.868;2023-03-01T09:04:11;9.70;;;8.90;;
33074;SDS011;19433;51.292;6.868;2023-03-01T09:06:37;11.27;;;8.57;;
33074;SDS011;19433;51.292;6.868;2023-03-01T09:09:03;10.07;;;9.17;;
33074;SDS011;19433;51.292;6.868;2023-03-01T09:11:30;10.53;;;9.63;;
33074;SDS011;19433;51.292;6.868;2023-03-01T09:13:56;10.40;;;9.50;;
33074;SDS011;19433;51.292;6.868;2023-03-01T09:16:22;10.17;;;9.27;;
33074;SDS011;19433;51.292;6.868;2023-03-01T09:18:48;10.13;;;9.33;;
33074;SDS011;19433;51.292;6.868;2023-03-01T09:21:16;9.63;;;8.73;;
33074;SDS011;19433;51.292;6.868;2023-03-01T09:23:43;9.50;;;8.70;;
33074;SDS011;19433;51.292;6.868;2023-03-01T09:26:11;8.93;;;8.13;;
33074;SDS011;19433;51.292;6.868;2023-03-01T09:28:38;9.27;;;8.47;;
33074;SDS011;19433;51.292;6.868;2023-03-01T09:31:06;9.27;;;8.47;;
33074;SDS011;19433;51.292;6.868;2023-03-01T09:33:32;10.00;;;9.10;;
33074;SDS011;19433;51.292;6.868;2023-03-01T09:38:24;9.33;;;8.53;;
33074;SDS011;19433;51.292;6.868;2023-03-01T09:40:49;9.70;;;8.90;;
33074;SDS011;19433;51.292;6.868;2023-03-01T09:45:59;10.00;;;9.20;;
33074;SDS011;19433;51.292;6.868;2023-03-01T09:48:30;8.47;;;7.67;;
33074;SDS011;19433;51.292;6.868;2023-03-01T09:51:02;9.67;;;8.77;;
33074;SDS011;19433;51.292;6.868;2023-03-01T09:53:34;10.07;;;9.23;;
33074;SDS011;19433;51.292;6.868;2023-03-01T09:56:13;9.77;;;8.93;;
33074;SDS011;19433;51.292;6.868;2023-03-01T09:58:48;9.17;;;8.40;;
33074;SDS011;19433;51.292;6.868;2023-03-01T10:06:43;10.03;;;9.23;;
33074;SDS011;19433;51.292;6.868;2023-03-01T10:09:16;10.80;;;9.90;;
33074;SDS011;19433;51.292;6.868;2023-03-01T10:11:44;10.07;;;9.27;;
33074;SDS011;19433;51.292;6.868;2023-03-01T10:17:03;10.27;;;9.30;;
33074;SDS011;19433;51.292;6.868;2023-03-01T10:19:36;10.07;;;9.03;;
33074;SDS011;19433;51.292;6.868;2023-03-01T10:22:47;8.43;;;7.73;;
33074;SDS011;19433;51.292;6.868;2023-03-01T10:24:55;9.10;;;8.40;;
33074;SDS011;19433;51.292;6.868;2023-03-01T10:27:24;9.27;;;8.53;;
33074;SDS011;19433;51.292;6.868;2023-03-01T10:32:56;8.93;;;8.23;;
33074;SDS011;19433;51.292;6.868;2023-03-01T10:35:23;7.97;;;7.37;;
33074;SDS011;19433;51.292;6.868;2023-03-01T10:38:06;8.27;;;7.57;;
33074;SDS011;19433;51.292;6.868;2023-03-01T10:40:33;8.50;;;7.90;;
33074;SDS011;19433;51.292;6.868;2023-03-01T10:43:04;9.20;;;8.47;;
33074;SDS011;19433;51.292;6.868;2023-03-01T10:45:36;8.47;;;7.87;;
33074;SDS011;19433;51.292;6.868;2023-03-01T10:50:44;8.83;;;7.83;;
33074;SDS011;19433;51.292;6.868;2023-03-01T10:53:19;9.20;;;8.40;;
33074;SDS011;19433;51.292;6.868;2023-03-01T10:56:03;8.53;;;7.73;;
33074;SDS011;19433;51.292;6.868;2023-03-01T10:58:31;7.43;;;6.80;;
33074;SDS011;19433;51.292;6.868;2023-03-01T11:03:42;7.27;;;6.77;;
33074;SDS011;19433;51.292;6.868;2023-03-01T11:08:40;7.80;;;7.20;;
33074;SDS011;19433;51.292;6.868;2023-03-01T11:11:14;7.30;;;6.77;;
33074;SDS011;19433;51.292;6.868;2023-03-01T11:13:57;8.30;;;7.60;;
33074;SDS011;19433;51.292;6.868;2023-03-01T11:16:25;8.60;;;7.80;;
33074;SDS011;19433;51.292;6.868;2023-03-01T11:19:18;7.93;;;7.27;;
33074;SDS011;19433;51.292;6.868;2023-03-01T11:21:50;7.77;;;7.13;;
33074;SDS011;19433;51.292;6.868;2023-03-01T11:24:29;7.47;;;6.97;;
33074;SDS011;19433;51.292;6.868;2023-03-01T11:26:59;7.10;;;6.40;;
33074;SDS011;19433;51.292;6.868;2023-03-01T11:29:36;8.37;;;7.70;;
33074;SDS011;19433;51.292;6.868;2023-03-01T11:32:06;7.87;;;7.30;;
33074;SDS011;19433;51.292;6.868;2023-03-01T11:34:42;7.83;;;7.33;;
33074;SDS011;19433;51.292;6.868;2023-03-01T11:37:13;8.37;;;7.57;;
33074;SDS011;19433;51.292;6.868;2023-03-01T11:39:51;8.03;;;7.23;;
33074;SDS011;19433;51.292;6.868;2023-03-01T11:42:25;8.10;;;7.40;;
33074;SDS011;19433;51.292;6.868;2023-03-01T11:45:01;7.80;;;7.00;;
33074;SDS011;19433;51.292;6.868;2023-03-01T12:09:29;6.90;;;6.40;;
33074;SDS011;19433;51.292;6.868;2023-03-01T12:20:47;7.30;;;6.80;;
33074;SDS011;19433;51.292;6.868;2023-03-01T12:23:49;8.67;;;7.97;;
33074;SDS011;19433;51.292;6.868;2023-03-01T12:29:26;6.80;;;6.30;;
33074;SDS011;19433;51.292;6.868;2023-03-01T12:39:35;8.33;;;7.50;;
33074;SDS011;19433;51.292;6.868;2023-03-01T12:42:21;7.40;;;6.80;;
33074;SDS011;19433;51.292;6.868;2023-03-01T12:47:36;8.83;;;8.00;;
33074;SDS011;19433;51.292;6.868;2023-03-01T12:50:21;7.10;;;6.60;;
33074;SDS011;19433;51.292;6.868;2023-03-01T12:52:51;7.53;;;6.93;;
33074;SDS011;19433;51.292;6.868;2023-03-01T12:55:31;8.67;;;7.97;;
33074;SDS011;19433;51.292;6.868;2023-03-01T12:58:04;8.37;;;7.67;;
33074;SDS011;19433;51.292;6.868;2023-03-01T13:03:55;8.03;;;7.50;;
33074;SDS011;19433;51.292;6.868;2023-03-01T13:09:19;8.77;;;7.87;;
33074;SDS011;19433;51.292;6.868;2023-03-01T13:11:53;8.30;;;6.77;;
33074;SDS011;19433;51.292;6.868;2023-03-01T13:16:48;9.20;;;8.20;;
33074;SDS011;19433;51.292;6.868;2023-03-01T13:19:16;8.07;;;7.33;;
33074;SDS011;19433;51.292;6.868;2023-03-01T13:21:43;8.20;;;7.60;;
33074;SDS011;19433;51.292;6.868;2023-03-01T13:29:46;7.50;;;6.93;;
33074;SDS011;19433;51.292;6.868;2023-03-01T13:35:03;8.20;;;7.57;;
33074;SDS011;19433;51.292;6.868;2023-03-01T13:37:50;8.27;;;7.47;;
33074;SDS011;19433;51.292;6.868;2023-03-01T13:42:44;7.40;;;6.80;;
33074;SDS011;19433;51.292;6.868;2023-03-01T13:45:53;8.90;;;7.73;;
33074;SDS011;19433;51.292;6.868;2023-03-01T13:48:20;7.57;;;6.87;;
33074;SDS011;19433;51.292;6.868;2023-03-01T13:50:50;8.03;;;7.33;;
33074;SDS011;19433;51.292;6.868;2023-03-01T13:53:20;8.30;;;7.70;;
33074;SDS011;19433;51.292;6.868;2023-03-01T13:55:51;6.70;;;6.20;;
33074;SDS011;19433;51.292;6.868;2023-03-01T14:01:00;8.20;;;7.50;;
33074;SDS011;19433;51.292;6.868;2023-03-01T14:03:27;8.80;;;8.00;;
33074;SDS011;19433;51.292;6.868;2023-03-01T14:08:36;9.00;;;7.70;;
33074;SDS011;19433;51.292;6.868;2023-03-01T14:16:14;8.27;;;7.60;;
33074;SDS011;19433;51.292;6.868;2023-03-01T14:19:09;8.13;;;7.50;;
33074;SDS011;19433;51.292;6.868;2023-03-01T14:21:41;9.73;;;7.47;;
33074;SDS011;19433;51.292;6.868;2023-03-01T14:24:14;8.60;;;7.73;;
33074;SDS011;19433;51.292;6.868;2023-03-01T14:26:42;8.80;;;7.83;;
33074;SDS011;19433;51.292;6.868;2023-03-01T14:29:22;8.40;;;7.57;;
33074;SDS011;19433;51.292;6.868;2023-03-01T14:31:49;8.50;;;7.40;;
33074;SDS011;19433;51.292;6.868;2023-03-01T14:34:21;8.40;;;7.70;;
33074;SDS011;19433;51.292;6.868;2023-03-01T14:36:47;8.90;;;7.67;;
33074;SDS011;19433;51.292;6.868;2023-03-01T14:39:16;9.40;;;7.13;;
33074;SDS011;19433;51.292;6.868;2023-03-01T14:41:43;8.70;;;7.40;;
33074;SDS011;19433;51.292;6.868;2023-03-01T14:44:12;12.43;;;7.40;;
33074;SDS011;19433;51.292;6.868;2023-03-01T14:46:44;8.20;;;7.40;;
33074;SDS011;19433;51.292;6.868;2023-03-01T14:49:11;7.00;;;6.40;;
33074;SDS011;19433;51.292;6.868;2023-03-01T14:51:40;7.80;;;7.20;;
33074;SDS011;19433;51.292;6.868;2023-03-01T14:54:21;8.07;;;7.30;;
33074;SDS011;19433;51.292;6.868;2023-03-01T14:56:50;7.27;;;6.60;;
33074;SDS011;19433;51.292;6.868;2023-03-01T14:59:19;7.60;;;6.80;;
33074;SDS011;19433;51.292;6.868;2023-03-01T15:01:47;7.83;;;6.80;;
33074;SDS011;19433;51.292;6.868;2023-03-01T15:04:14;9.97;;;7.40;;
33074;SDS011;19433;51.292;6.868;2023-03-01T15:06:40;7.77;;;7.07;;
33074;SDS011;19433;51.292;6.868;2023-03-01T15:09:06;9.00;;;7.70;;
33074;SDS011;19433;51.292;6.868;2023-03-01T15:11:39;11.47;;;7.80;;
33074;SDS011;19433;51.292;6.868;2023-03-01T15:17:19;9.53;;;7.47;;
33074;SDS011;19433;51.292;6.868;2023-03-01T15:19:45;7.97;;;7.17;;
33074;SDS011;19433;51.292;6.868;2023-03-01T15:22:15;9.50;;;7.93;;
33074;SDS011;19433;51.292;6.868;2023-03-01T15:24:41;8.70;;;7.90;;
33074;SDS011;19433;51.292;6.868;2023-03-01T15:27:14;8.33;;;7.40;;
33074;SDS011;19433;51.292;6.868;2023-03-01T15:29:48;7.57;;;6.87;;
33074;SDS011;19433;51.292;6.868;2023-03-01T15:32:24;8.83;;;7.87;;
33074;SDS011;19433;51.292;6.868;2023-03-01T15:34:49;7.80;;;6.90;;
33074;SDS011;19433;51.292;6.868;2023-03-01T15:42:45;8.90;;;6.93;;
33074;SDS011;19433;51.292;6.868;2023-03-01T15:45:31;6.07;;;5.47;;
33074;SDS011;19433;51.292;6.868;2023-03-01T15:48:02;6.67;;;5.80;;
33074;SDS011;19433;51.292;6.868;2023-03-01T15:50:31;7.13;;;6.40;;
33074;SDS011;19433;51.292;6.868;2023-03-01T15:52:59;5.90;;;5.40;;
33074;SDS011;19433;51.292;6.868;2023-03-01T15:55:27;9.00;;;6.17;;
33074;SDS011;19433;51.292;6.868;2023-03-01T15:58:01;6.90;;;5.43;;
33074;SDS011;19433;51.292;6.868;2023-03-01T16:00:29;6.50;;;5.90;;
33074;SDS011;19433;51.292;6.868;2023-03-01T16:02:55;6.93;;;5.90;;
33074;SDS011;19433;51.292;6.868;2023-03-01T16:05:22;7.40;;;5.47;;
33074;SDS011;19433;51.292;6.868;2023-03-01T16:07:56;6.80;;;6.20;;
33074;SDS011;19433;51.292;6.868;2023-03-01T16:10:22;7.17;;;5.90;;
33074;SDS011;19433;51.292;6.868;2023-03-01T16:12:48;8.97;;;5.73;;
33074;SDS011;19433;51.292;6.868;2023-03-01T16:15:21;6.60;;;6.00;;
33074;SDS011;19433;51.292;6.868;2023-03-01T16:17:53;8.37;;;6.93;;
33074;SDS011;19433;51.292;6.868;2023-03-01T16:20:18;9.57;;;8.00;;
33074;SDS011;19433;51.292;6.868;2023-03-01T16:22:44;7.00;;;6.40;;
33074;SDS011;19433;51.292;6.868;2023-03-01T16:25:11;7.43;;;6.00;;
33074;SDS011;19433;51.292;6.868;2023-03-01T16:27:38;6.33;;;5.73;;
33074;SDS011;19433;51.292;6.868;2023-03-01T16:30:05;8.43;;;6.17;;
33074;SDS011;19433;51.292;6.868;2023-03-01T16:32:31;8.93;;;6.47;;
33074;SDS011;19433;51.292;6.868;2023-03-01T16:34:56;8.03;;;7.33;;
33074;SDS011;19433;51.292;6.868;2023-03-01T16:37:22;6.93;;;6.23;;